Time;durP1;ratioP1;P1;durP2;ratioP2;P2;SDS_P1;SDS_P2;PMS_P1;PMS_P2;Temp;Humidity;BMP_temperature;BMP_pressure;BME280_temperature;BME280_humidity;BME280_pressure;Samples;Min_cycle;Max_cycle;Signal;HPM_P1;HPM_P2
2023/08/28 00:00:36;;;;;;;1999.90;999.90;;;14.70;99.90;;;;;;5012622;28;20176;-76
2023/08/28 00:03:02;;;;;;;1999.90;999.90;;;14.60;99.90;;;;;;5012309;28;20181;-75
2023/08/28 00:05:31;;;;;;;1999.90;999.90;;;14.70;99.90;;;;;;5012584;28;20220;-75
2023/08/28 00:07:57;;;;;;;1999.90;999.90;;;14.70;99.90;;;;;;5012469;28;20189;-75
2023/08/28 00:10:24;;;;;;;1999.90;999.90;;;14.70;99.90;;;;;;5012512;28;20409;-75
2023/08/28 00:12:49;;;;;;;1999.90;999.90;;;14.60;99.90;;;;;;5012069;28;20443;-75
2023/08/28 00:15:15;;;;;;;1999.90;999.90;;;14.60;99.90;;;;;;5027899;28;20462;-75
2023/08/28 00:17:41;;;;;;;1999.90;999.90;;;14.60;99.90;;;;;;5012189;28;20281;-74
2023/08/28 00:20:09;;;;;;;1999.90;999.90;;;14.60;99.90;;;;;;5012441;28;20199;-75
2023/08/28 00:22:36;;;;;;;1999.90;999.90;;;14.60;99.90;;;;;;5027508;28;20987;-75
2023/08/28 00:25:03;;;;;;;1999.90;999.90;;;14.60;99.90;;;;;;5012310;28;20874;-75
2023/08/28 00:27:29;;;;;;;1999.90;999.90;;;14.70;99.90;;;;;;5012262;28;20526;-75
2023/08/28 00:29:55;;;;;;;1999.90;999.90;;;14.70;99.90;;;;;;5012211;28;20516;-76
2023/08/28 00:32:20;;;;;;;1999.90;999.90;;;14.60;99.90;;;;;;5011814;28;20173;-75
2023/08/28 00:34:47;;;;;;;1999.90;999.90;;;14.60;99.90;;;;;;5012252;28;20661;-75
2023/08/28 00:37:12;;;;;;;1999.90;999.90;;;14.60;99.90;;;;;;5012093;28;20267;-75
2023/08/28 00:39:38;;;;;;;1999.90;999.90;;;14.60;99.90;;;;;;5012156;28;20928;-75
2023/08/28 00:42:04;;;;;;;1999.90;999.90;;;14.60;99.90;;;;;;5011818;28;20257;-75
2023/08/28 00:44:30;;;;;;;1999.90;999.90;;;14.50;99.90;;;;;;5012124;28;20175;-75
2023/08/28 00:46:56;;;;;;;1999.90;999.90;;;14.50;99.90;;;;;;5015300;28;20420;-75
2023/08/28 00:49:22;;;;;;;1999.90;999.90;;;14.50;99.90;;;;;;5016081;28;20169;-75
2023/08/28 00:51:48;;;;;;;1999.90;999.90;;;14.40;99.90;;;;;;5015783;28;20499;-75
2023/08/28 00:54:15;;;;;;;1999.90;999.90;;;14.40;99.90;;;;;;5016041;28;20779;-75
2023/08/28 00:56:41;;;;;;;1999.90;999.90;;;14.40;99.90;;;;;;5015922;28;20443;-75
2023/08/28 00:59:08;;;;;;;1999.90;999.90;;;14.30;99.90;;;;;;5015869;28;20402;-75
2023/08/28 01:01:33;;;;;;;1999.90;999.90;;;14.30;99.90;;;;;;5015692;28;20406;-75
2023/08/28 01:03:59;;;;;;;1999.90;999.90;;;14.30;99.90;;;;;;5015862;28;20405;-75
2023/08/28 01:06:55;;;;;;;1999.90;999.90;;;14.00;99.90;;;;;;5015895;28;20196;-74
2023/08/28 01:09:39;;;;;;;1999.90;999.90;;;14.30;99.90;;;;;;5015831;28;20181;-75
2023/08/28 01:12:23;;;;;;;1999.90;999.90;;;14.30;99.90;;;;;;5015485;28;20876;-75
2023/08/28 01:15:02;;;;;;;1999.90;999.90;;;14.40;99.90;;;;;;5015676;28;20413;-75
2023/08/28 01:17:30;;;;;;;1999.90;999.90;;;14.30;99.90;;;;;;5015475;28;20452;-75
2023/08/28 01:19:57;;;;;;;1999.90;999.90;;;14.30;99.90;;;;;;5015559;28;20500;-75
2023/08/28 01:22:35;;;;;;;1999.90;999.90;;;14.30;99.90;;;;;;5015282;28;21183;-75
2023/08/28 01:25:09;;;;;;;1999.90;999.90;;;14.20;99.90;;;;;;5015500;28;20403;-75
2023/08/28 01:27:39;;;;;;;1999.90;999.90;;;14.20;99.90;;;;;;5015382;28;20485;-75
2023/08/28 01:30:12;;;;;;;1999.90;999.90;;;14.20;99.90;;;;;;5015323;28;20501;-75
2023/08/28 01:32:39;;;;;;;1999.90;999.90;;;14.10;99.90;;;;;;5014934;28;20448;-75
2023/08/28 01:35:09;;;;;;;1999.90;999.90;;;14.10;99.90;;;;;;5015312;28;20405;-75
2023/08/28 01:37:58;;;;;;;1999.90;999.90;;;14.10;99.90;;;;;;5015187;28;20421;-75
2023/08/28 01:40:29;;;;;;;1999.90;999.90;;;14.00;99.90;;;;;;5015341;28;20472;-75
2023/08/28 01:42:56;;;;;;;1999.90;999.90;;;13.90;99.90;;;;;;5014769;28;20763;-75
2023/08/28 01:45:22;;;;;;;1999.90;999.90;;;13.80;99.90;;;;;;5015089;28;20425;-75
2023/08/28 01:47:49;;;;;;;1999.90;999.90;;;13.80;99.90;;;;;;5015036;28;20442;-75
2023/08/28 01:50:14;;;;;;;1999.90;999.90;;;13.80;99.90;;;;;;5014951;28;20877;-74
2023/08/28 01:52:40;;;;;;;1999.90;999.90;;;13.80;99.90;;;;;;5014663;28;20545;-74
2023/08/28 01:55:06;;;;;;;1999.90;999.90;;;13.80;99.90;;;;;;5014879;28;20650;-75
2023/08/28 01:57:32;;;;;;;1999.90;999.90;;;13.80;99.90;;;;;;5013557;28;20254;-75
2023/08/28 01:59:57;;;;;;;1999.90;999.90;;;13.80;99.90;;;;;;5014851;28;20400;-75
2023/08/28 02:02:23;;;;;;;1999.90;999.90;;;13.80;99.90;;;;;;5014516;28;20339;-76
2023/08/28 02:04:48;;;;;;;1999.90;999.90;;;13.80;99.90;;;;;;5014766;28;20170;-75
2023/08/28 02:07:14;;;;;;;1999.90;999.90;;;13.80;99.90;;;;;;5014611;28;20708;-75
2023/08/28 02:09:40;;;;;;;1999.90;999.90;;;13.80;99.90;;;;;;5014651;28;20176;-75
2023/08/28 02:12:06;;;;;;;1999.90;999.90;;;13.70;99.90;;;;;;5014262;28;20182;-75
2023/08/28 02:14:32;;;;;;;1999.90;999.90;;;13.70;99.90;;;;;;5014467;28;20747;-76
2023/08/28 02:16:57;;;;;;;1999.90;999.90;;;13.70;99.90;;;;;;5015008;28;20455;-76
2023/08/28 02:19:23;;;;;;;1999.90;999.90;;;13.70;99.90;;;;;;5015978;28;20415;-76
2023/08/28 02:21:48;;;;;;;1999.90;999.90;;;13.60;99.90;;;;;;5014890;28;20215;-75
2023/08/28 02:24:14;;;;;;;1999.90;999.90;;;13.60;99.90;;;;;;5014804;28;20168;-76
2023/08/28 02:26:40;;;;;;;1999.90;999.90;;;13.60;99.90;;;;;;5015842;28;20190;-76
2023/08/28 02:29:05;;;;;;;1999.90;999.90;;;13.50;99.90;;;;;;5015673;28;20231;-76
2023/08/28 02:31:31;;;;;;;1999.90;999.90;;;13.50;99.90;;;;;;5014442;28;20198;-75
2023/08/28 02:33:56;;;;;;;1999.90;999.90;;;13.40;99.90;;;;;;5014564;28;20202;-75
2023/08/28 02:36:22;;;;;;;1999.90;999.90;;;13.40;99.90;;;;;;5014544;28;20667;-76
2023/08/28 02:38:48;;;;;;;1999.90;999.90;;;13.40;99.90;;;;;;5014794;28;20173;-76
2023/08/28 02:41:13;;;;;;;1999.90;999.90;;;13.30;99.90;;;;;;5014560;28;20174;-75
2023/08/28 02:43:39;;;;;;;1999.90;999.90;;;13.20;99.90;;;;;;5014919;28;20772;-75
2023/08/28 02:46:04;;;;;;;1999.90;999.90;;;13.00;99.90;;;;;;5014844;28;20207;-75
2023/08/28 02:48:30;;;;;;;1999.90;999.90;;;13.00;99.90;;;;;;5014730;28;20175;-76
2023/08/28 02:50:55;;;;;;;1999.90;999.90;;;13.00;99.90;;;;;;5014137;28;20540;-75
2023/08/28 02:53:21;;;;;;;1999.90;999.90;;;13.00;99.90;;;;;;5014969;28;20541;-76
2023/08/28 02:56:10;;;;;;;1999.90;999.90;;;13.00;99.90;;;;;;5014807;28;20272;-75
2023/08/28 02:58:35;;;;;;;1999.90;999.90;;;13.00;99.90;;;;;;5014434;28;20606;-76
2023/08/28 03:01:02;;;;;;;1999.90;999.90;;;13.00;99.90;;;;;;5013871;28;20515;-74
2023/08/28 03:03:28;;;;;;;1999.90;999.90;;;13.00;99.90;;;;;;5013655;28;20193;-75
2023/08/28 03:05:53;;;;;;;1999.90;999.90;;;13.00;99.90;;;;;;5013688;28;21021;-75
2023/08/28 03:08:20;;;;;;;1999.90;999.90;;;13.00;99.90;;;;;;5013641;28;20196;-74
2023/08/28 03:10:46;;;;;;;1999.90;999.90;;;13.00;99.90;;;;;;5013890;28;20254;-75
2023/08/28 03:13:11;;;;;;;1999.90;999.90;;;13.00;99.90;;;;;;5013250;28;21058;-75
2023/08/28 03:15:37;;;;;;;1999.90;999.90;;;12.90;99.90;;;;;;5013704;28;20167;-75
2023/08/28 03:18:03;;;;;;;1999.90;999.90;;;12.90;99.90;;;;;;5014402;28;20234;-76
2023/08/28 03:20:28;;;;;;;1999.90;999.90;;;13.00;99.90;;;;;;5013921;28;20168;-75
2023/08/28 03:22:55;;;;;;;1999.90;999.90;;;12.90;99.90;;;;;;5012995;28;20183;-75
2023/08/28 03:25:20;;;;;;;1999.90;999.90;;;13.00;99.90;;;;;;5013203;28;20532;-75
2023/08/28 03:27:46;;;;;;;1999.90;999.90;;;13.00;99.90;;;;;;5013098;28;20438;-74
2023/08/28 03:30:12;;;;;;;1999.90;999.90;;;13.00;99.90;;;;;;5013124;28;20174;-75
2023/08/28 03:32:38;;;;;;;1999.90;999.90;;;13.00;99.90;;;;;;5012839;28;20200;-74
2023/08/28 03:35:04;;;;;;;1999.90;999.90;;;12.90;99.90;;;;;;5013064;28;20464;-75
2023/08/28 03:37:29;;;;;;;1999.90;999.90;;;12.80;99.90;;;;;;5012929;28;20196;-74
2023/08/28 03:39:55;;;;;;;1999.90;999.90;;;12.80;99.90;;;;;;5012948;28;21114;-74
2023/08/28 03:42:20;;;;;;;1999.90;999.90;;;12.80;99.90;;;;;;5012648;28;20202;-74
2023/08/28 03:44:46;;;;;;;1999.90;999.90;;;12.70;99.90;;;;;;5012867;28;20172;-74
2023/08/28 03:47:12;;;;;;;1999.90;999.90;;;12.70;99.90;;;;;;5012871;28;20250;-74
2023/08/28 03:49:37;;;;;;;1999.90;999.90;;;12.70;99.90;;;;;;5012836;28;20213;-75
2023/08/28 03:52:03;;;;;;;1999.90;999.90;;;12.70;99.90;;;;;;5012541;28;20167;-74
2023/08/28 03:54:29;;;;;;;1999.90;999.90;;;12.60;99.90;;;;;;5012569;28;20233;-75
2023/08/28 03:56:54;;;;;;;1999.90;999.90;;;12.70;99.90;;;;;;5012682;28;20423;-74
2023/08/28 03:59:21;;;;;;;1999.90;999.90;;;12.60;99.90;;;;;;5012669;28;20181;-75
2023/08/28 04:01:47;;;;;;;1999.90;999.90;;;12.70;99.90;;;;;;5012385;28;20170;-75
2023/08/28 04:04:13;;;;;;;1999.90;999.90;;;12.70;99.90;;;;;;5012620;28;20510;-74
2023/08/28 04:06:39;;;;;;;1999.90;999.90;;;12.60;99.90;;;;;;5012453;28;20466;-75
2023/08/28 04:09:05;;;;;;;1999.90;999.90;;;12.60;99.90;;;;;;5012419;28;20194;-74
2023/08/28 04:11:31;;;;;;;1999.90;999.90;;;12.50;99.90;;;;;;5012241;28;20179;-74
2023/08/28 04:13:56;;;;;;;1999.90;999.90;;;12.50;99.90;;;;;;5012388;28;20456;-74
2023/08/28 04:16:22;;;;;;;1999.90;999.90;;;12.50;99.90;;;;;;5012243;28;20646;-74
2023/08/28 04:18:47;;;;;;;1999.90;999.90;;;12.40;99.90;;;;;;5012498;28;20178;-75
2023/08/28 04:21:14;;;;;;;1999.90;999.90;;;12.50;99.90;;;;;;5011278;28;20178;-75
2023/08/28 04:23:40;;;;;;;1999.90;999.90;;;12.50;99.90;;;;;;5012333;28;20625;-75
2023/08/28 04:26:06;;;;;;;1999.90;999.90;;;12.60;99.90;;;;;;5012194;28;20449;-75
2023/08/28 04:28:31;;;;;;;1999.90;999.90;;;12.50;99.90;;;;;;5012277;28;20170;-74
2023/08/28 04:30:57;;;;;;;1999.90;999.90;;;12.50;99.90;;;;;;5012102;28;20920;-74
2023/08/28 04:33:23;;;;;;;1999.90;999.90;;;12.50;99.90;;;;;;5014806;28;20206;-75
2023/08/28 04:35:49;;;;;;;1999.90;999.90;;;12.40;99.90;;;;;;5031475;28;20210;-75
2023/08/28 04:38:15;;;;;;;1999.90;999.90;;;12.40;99.90;;;;;;5019909;28;20457;-74
2023/08/28 04:40:40;;;;;;;1999.90;999.90;;;12.40;99.90;;;;;;5016323;28;20184;-74
2023/08/28 04:43:06;;;;;;;1999.90;999.90;;;12.30;99.90;;;;;;5011851;28;20187;-74
2023/08/28 04:45:31;;;;;;;1999.90;999.90;;;12.30;99.90;;;;;;5012145;28;20175;-74
2023/08/28 04:47:57;;;;;;;1999.90;999.90;;;12.40;99.90;;;;;;5012115;28;20255;-74
2023/08/28 04:50:23;;;;;;;1999.90;999.90;;;12.30;99.90;;;;;;5025905;28;20179;-74
2023/08/28 04:52:48;;;;;;;1999.90;999.90;;;12.40;99.90;;;;;;5030972;28;20220;-75
2023/08/28 04:55:14;;;;;;;1999.90;999.90;;;12.30;99.90;;;;;;5015531;28;20185;-75
2023/08/28 04:57:39;;;;;;;1999.90;999.90;;;12.30;99.90;;;;;;5016302;28;20205;-74
2023/08/28 05:00:06;;;;;;;1999.90;999.90;;;12.30;99.90;;;;;;5011998;28;20250;-74
2023/08/28 05:02:31;;;;;;;1999.90;999.90;;;12.30;99.90;;;;;;5011729;28;20167;-75
2023/08/28 05:04:57;;;;;;;1999.90;999.90;;;12.20;99.90;;;;;;5011909;28;20873;-74
2023/08/28 05:07:22;;;;;;;1999.90;999.90;;;12.30;99.90;;;;;;5011781;28;20207;-74
2023/08/28 05:09:48;;;;;;;1999.90;999.90;;;12.20;99.90;;;;;;5011955;28;20169;-75
2023/08/28 05:12:14;;;;;;;1999.90;999.90;;;12.20;99.90;;;;;;5011686;28;20661;-74
2023/08/28 05:14:39;;;;;;;1999.90;999.90;;;12.20;99.90;;;;;;5011560;28;20240;-74
2023/08/28 05:17:06;;;;;;;1999.90;999.90;;;12.20;99.90;;;;;;5011950;28;20215;-76
2023/08/28 05:19:31;;;;;;;1999.90;999.90;;;12.30;99.90;;;;;;5011677;28;20177;-75
2023/08/28 05:21:57;;;;;;;1999.90;999.90;;;12.40;99.90;;;;;;5011479;28;20503;-76
2023/08/28 05:24:22;;;;;;;1999.90;999.90;;;12.30;99.90;;;;;;5011755;28;20173;-75
2023/08/28 05:26:48;;;;;;;1999.90;999.90;;;12.30;99.90;;;;;;5029268;28;20202;-76
2023/08/28 05:29:14;;;;;;;1999.90;999.90;;;12.40;99.90;;;;;;5031200;28;20197;-76
2023/08/28 05:31:39;;;;;;;1999.90;999.90;;;12.40;99.90;;;;;;5023746;28;20634;-75
2023/08/28 05:34:05;;;;;;;1999.90;999.90;;;12.30;99.90;;;;;;5016114;28;20571;-75
2023/08/28 05:36:30;;;;;;;1999.90;999.90;;;12.40;99.90;;;;;;5018051;28;20818;-76
2023/08/28 05:38:56;;;;;;;1999.90;999.90;;;12.40;99.90;;;;;;5032405;28;20183;-75
2023/08/28 05:41:21;;;;;;;1999.90;999.90;;;12.40;99.90;;;;;;5026326;28;20186;-75
2023/08/28 05:43:47;;;;;;;1999.90;999.90;;;12.60;99.90;;;;;;5018500;28;20656;-75
2023/08/28 05:46:13;;;;;;;1999.90;999.90;;;12.90;99.90;;;;;;4995507;28;20176;-75
2023/08/28 05:48:38;;;;;;;1999.90;999.90;;;12.90;99.90;;;;;;4995420;28;20177;-75
2023/08/28 05:51:04;;;;;;;1999.90;999.90;;;12.90;99.90;;;;;;4994414;28;20244;-76
2023/08/28 05:53:29;;;;;;;1999.90;999.90;;;13.00;99.90;;;;;;4995256;28;20303;-75
2023/08/28 05:55:55;;;;;;;1999.90;999.90;;;13.10;99.90;;;;;;4995222;28;20172;-75
2023/08/28 05:58:20;;;;;;;1999.90;999.90;;;13.20;99.90;;;;;;4995318;28;20690;-75
2023/08/28 06:00:46;;;;;;;1999.90;999.90;;;13.30;99.90;;;;;;4995157;28;20179;-75
2023/08/28 06:03:12;;;;;;;1999.90;999.90;;;13.40;99.90;;;;;;4994978;28;20212;-74
2023/08/28 06:05:38;;;;;;;1999.90;999.90;;;13.40;99.90;;;;;;4995016;28;20215;-75
2023/08/28 06:08:04;;;;;;;1999.90;999.90;;;13.50;99.90;;;;;;4995130;28;20200;-75
2023/08/28 06:10:29;;;;;;;1999.90;999.90;;;13.60;99.90;;;;;;4994885;28;20423;-75
2023/08/28 06:12:55;;;;;;;1999.90;999.90;;;13.70;99.90;;;;;;4994185;28;20451;-75
2023/08/28 06:15:21;;;;;;;1999.90;999.90;;;13.70;99.90;;;;;;4995016;28;20231;-75
2023/08/28 06:17:48;;;;;;;1999.90;999.90;;;13.80;99.90;;;;;;4994731;28;20211;-74
2023/08/28 06:20:14;;;;;;;1999.90;999.90;;;13.80;99.90;;;;;;4994837;28;20246;-75
2023/08/28 06:22:42;;;;;;;1999.90;999.90;;;13.90;99.90;;;;;;4994840;28;20544;-75
2023/08/28 06:25:09;;;;;;;1999.90;999.90;;;13.90;99.90;;;;;;5021271;28;20216;-75
2023/08/28 06:27:34;;;;;;;1999.90;999.90;;;14.10;99.90;;;;;;5020308;28;20440;-75
2023/08/28 06:30:00;;;;;;;1999.90;999.90;;;14.10;99.90;;;;;;5022300;28;20468;-75
2023/08/28 06:32:25;;;;;;;1999.90;999.90;;;14.20;99.90;;;;;;5014468;28;20634;-75
2023/08/28 06:34:51;;;;;;;1999.90;999.90;;;14.30;99.90;;;;;;5014714;28;20171;-75
2023/08/28 06:37:17;;;;;;;1999.90;999.90;;;14.30;99.90;;;;;;5015855;28;20188;-76
2023/08/28 06:39:42;;;;;;;1999.90;999.90;;;14.40;99.90;;;;;;5017161;28;20657;-75
2023/08/28 06:42:08;;;;;;;1999.90;999.90;;;14.50;99.90;;;;;;5017237;28;20175;-75
2023/08/28 06:44:33;;;;;;;1999.90;999.90;;;14.60;99.90;;;;;;5023415;28;20637;-75
2023/08/28 06:46:59;;;;;;;1999.90;999.90;;;14.60;99.90;;;;;;5014859;28;20199;-75
2023/08/28 06:49:24;;;;;;;1999.90;999.90;;;14.70;99.90;;;;;;5014442;28;20270;-75
2023/08/28 06:51:50;;;;;;;1999.90;999.90;;;14.70;99.90;;;;;;5014211;28;20174;-75
2023/08/28 06:54:15;;;;;;;1999.90;999.90;;;14.70;99.90;;;;;;5014412;28;20620;-75
2023/08/28 06:56:41;;;;;;;1999.90;999.90;;;14.70;99.90;;;;;;5014292;28;20187;-75
2023/08/28 06:59:06;;;;;;;1999.90;999.90;;;14.90;99.90;;;;;;5014068;28;20170;-75
2023/08/28 07:01:32;;;;;;;1999.90;999.90;;;15.00;99.90;;;;;;5013711;28;20164;-75
2023/08/28 07:03:58;;;;;;;1999.90;999.90;;;15.10;99.90;;;;;;5013714;28;20174;-75
2023/08/28 07:06:23;;;;;;;1999.90;999.90;;;15.10;99.90;;;;;;5013528;28;20578;-74
2023/08/28 07:08:49;;;;;;;1999.90;999.90;;;15.10;99.90;;;;;;5013555;28;20237;-74
2023/08/28 07:11:14;;;;;;;1999.90;999.90;;;15.10;99.90;;;;;;5013219;28;20169;-75
2023/08/28 07:13:40;;;;;;;1999.90;999.90;;;15.10;99.90;;;;;;5013339;28;20192;-75
2023/08/28 07:16:05;;;;;;;1999.90;999.90;;;15.10;99.90;;;;;;5013254;28;20163;-75
2023/08/28 07:18:31;;;;;;;1999.90;999.90;;;15.20;99.90;;;;;;5013261;28;20681;-75
2023/08/28 07:20:57;;;;;;;1999.90;999.90;;;15.20;99.90;;;;;;5013238;28;20172;-74
2023/08/28 07:23:25;;;;;;;1999.90;999.90;;;15.30;99.90;;;;;;5013235;28;20621;-74
2023/08/28 07:25:51;;;;;;;1999.90;999.90;;;15.30;99.90;;;;;;5013111;28;20177;-74
2023/08/28 07:28:17;;;;;;;1999.90;999.90;;;15.50;99.90;;;;;;5013083;28;20424;-74
2023/08/28 07:30:43;;;;;;;1999.90;999.90;;;15.60;99.90;;;;;;5013069;28;20423;-75
2023/08/28 07:33:09;;;;;;;1999.90;999.90;;;15.70;99.90;;;;;;5012658;28;20455;-74
2023/08/28 07:35:35;;;;;;;1999.90;999.90;;;15.70;99.90;;;;;;5013127;28;20178;-75
2023/08/28 07:38:07;;;;;;;1999.90;999.90;;;15.80;99.90;;;;;;5013299;28;20785;-75
2023/08/28 07:40:34;;;;;;;1999.90;999.90;;;15.90;99.90;;;;;;5013244;28;20416;-75
2023/08/28 07:43:00;;;;;;;1999.90;999.90;;;16.00;99.90;;;;;;5013095;28;20422;-75
2023/08/28 07:45:26;;;;;;;1999.90;999.90;;;16.10;99.90;;;;;;5012542;28;20451;-75
2023/08/28 07:47:51;;;;;;;1999.90;999.90;;;16.10;99.90;;;;;;5012764;28;21254;-75
2023/08/28 07:50:17;;;;;;;1999.90;999.90;;;16.20;99.90;;;;;;5013315;28;20216;-75
2023/08/28 07:52:43;;;;;;;1999.90;999.90;;;16.20;99.90;;;;;;5012998;28;20702;-75
2023/08/28 07:55:09;;;;;;;1999.90;999.90;;;16.40;99.90;;;;;;5012384;28;20205;-75
2023/08/28 07:57:34;;;;;;;1999.90;999.90;;;16.50;99.90;;;;;;5012985;28;20219;-75
2023/08/28 08:00:05;;;;;;;1999.90;999.90;;;16.60;99.90;;;;;;5013241;28;20856;-75
2023/08/28 08:02:31;;;;;;;1999.90;999.90;;;16.60;99.90;;;;;;5013121;28;20182;-75
2023/08/28 08:04:57;;;;;;;1999.90;999.90;;;16.70;99.90;;;;;;5013034;28;20950;-75
2023/08/28 08:07:23;;;;;;;1999.90;999.90;;;17.00;99.90;;;;;;5012933;28;20224;-74
2023/08/28 08:09:49;;;;;;;1999.90;999.90;;;17.10;99.90;;;;;;5013792;28;20407;-75
2023/08/28 08:12:15;;;;;;;1999.90;999.90;;;17.10;99.90;;;;;;5013147;28;20202;-75
2023/08/28 08:14:40;;;;;;;1999.90;999.90;;;17.30;99.90;;;;;;5013249;28;20203;-75
2023/08/28 08:17:06;;;;;;;1999.90;999.90;;;17.40;99.90;;;;;;5012751;28;20213;-75
2023/08/28 08:19:32;;;;;;;1999.90;999.90;;;17.40;99.90;;;;;;5012941;28;20524;-75
2023/08/28 08:21:58;;;;;;;1999.90;999.90;;;17.50;99.90;;;;;;5012459;28;20667;-75
2023/08/28 08:24:23;;;;;;;1999.90;999.90;;;17.70;99.90;;;;;;5012696;28;21014;-75
2023/08/28 08:26:49;;;;;;;1999.90;999.90;;;17.90;99.90;;;;;;5012254;28;20440;-75
2023/08/28 08:29:15;;;;;;;1999.90;999.90;;;18.00;99.90;;;;;;5012393;28;20221;-75
2023/08/28 08:31:40;;;;;;;1999.90;999.90;;;18.30;99.90;;;;;;5011970;28;20170;-75
2023/08/28 08:34:06;;;;;;;1999.90;999.90;;;18.40;99.90;;;;;;5012180;28;20207;-74
2023/08/28 08:36:32;;;;;;;1999.90;999.90;;;18.60;99.90;;;;;;5012181;28;20209;-75
2023/08/28 08:38:57;;;;;;;1999.90;999.90;;;18.80;99.90;;;;;;5012193;28;20237;-74
2023/08/28 08:41:23;;;;;;;1999.90;999.90;;;19.10;99.90;;;;;;5011905;28;20178;-75
2023/08/28 08:43:48;;;;;;;1999.90;999.90;;;19.20;99.90;;;;;;5012557;28;20169;-75
2023/08/28 08:46:15;;;;;;;1999.90;999.90;;;19.10;99.90;;;;;;5012396;28;20166;-75
2023/08/28 08:48:42;;;;;;;1999.90;999.90;;;19.30;99.90;;;;;;5012155;28;20649;-74
2023/08/28 08:51:08;;;;;;;1999.90;999.90;;;19.40;99.90;;;;;;5011806;28;20499;-75
2023/08/28 08:53:33;;;;;;;1999.90;999.90;;;19.50;99.90;;;;;;5012083;28;20578;-74
2023/08/28 08:56:03;;;;;;;1999.90;999.90;;;19.50;99.90;;;;;;5012041;28;20169;-75
2023/08/28 08:58:30;;;;;;;1999.90;999.90;;;19.40;99.90;;;;;;5012025;28;20246;-75
2023/08/28 09:00:56;;;;;;;1999.90;999.90;;;19.40;99.90;;;;;;5011698;28;20507;-74
2023/08/28 09:03:22;;;;;;;1999.90;999.90;;;19.40;99.90;;;;;;5012028;28;20467;-74
2023/08/28 09:05:50;;;;;;;1999.90;999.90;;;19.30;99.90;;;;;;5012037;28;20408;-75
2023/08/28 09:08:17;;;;;;;1999.90;999.90;;;19.30;99.90;;;;;;5015847;28;20194;-74
2023/08/28 09:10:46;;;;;;;1999.90;999.90;;;19.30;99.90;;;;;;5016439;28;21077;-75
2023/08/28 09:13:12;;;;;;;1999.90;999.90;;;19.40;99.90;;;;;;5015449;28;20457;-75
2023/08/28 09:15:37;;;;;;;1999.90;999.90;;;19.50;99.90;;;;;;5015707;28;20407;-74
2023/08/28 09:18:04;;;;;;;1999.90;999.90;;;19.50;99.90;;;;;;5020836;28;20455;-75
2023/08/28 09:20:30;;;;;;;1999.90;999.90;;;19.50;99.90;;;;;;5021248;28;20182;-75
2023/08/28 09:22:55;;;;;;;1999.90;999.90;;;19.50;99.90;;;;;;5024083;28;20427;-73
2023/08/28 09:25:22;;;;;;;1999.90;999.90;;;19.60;99.90;;;;;;5016168;28;20191;-75
2023/08/28 09:27:53;;;;;;;1999.90;999.90;;;19.60;99.90;;;;;;5032247;28;20199;-75
2023/08/28 09:30:29;;;;;;;1999.90;999.90;;;19.60;99.90;;;;;;5008880;28;20419;-71
2023/08/28 09:32:59;;;;;;;1999.90;999.90;;;19.80;99.90;;;;;;5018845;28;20457;-74
2023/08/28 09:35:26;;;;;;;1999.90;999.90;;;19.80;99.90;;;;;;5012572;28;20564;-74
2023/08/28 09:37:56;;;;;;;1999.90;999.90;;;19.90;99.90;;;;;;5009977;28;20448;-75
2023/08/28 09:40:30;;;;;;;1999.90;999.90;;;19.80;99.90;;;;;;5012758;28;20958;-74
2023/08/28 09:42:57;;;;;;;1999.90;999.90;;;19.80;99.90;;;;;;5016818;28;20428;-75
2023/08/28 09:45:22;;;;;;;1999.90;999.90;;;19.70;99.90;;;;;;5012766;28;20500;-75
2023/08/28 09:47:53;;;;;;;1999.90;999.90;;;19.80;99.90;;;;;;5025950;28;20430;-75
2023/08/28 09:50:28;;;;;;;1999.90;999.90;;;19.90;99.90;;;;;;5002482;28;20200;-74
2023/08/28 09:52:54;;;;;;;1999.90;999.90;;;20.00;99.90;;;;;;5010052;28;20464;-74
2023/08/28 09:55:20;;;;;;;1999.90;999.90;;;19.90;99.90;;;;;;5010760;28;20421;-75
2023/08/28 09:57:46;;;;;;;1999.90;999.90;;;20.00;99.90;;;;;;5016633;28;20224;-74
2023/08/28 10:00:13;;;;;;;1999.90;999.90;;;20.10;99.90;;;;;;5009665;28;20516;-74
2023/08/28 10:02:39;;;;;;;1999.90;999.90;;;19.90;99.90;;;;;;5016082;28;20550;-74
2023/08/28 10:05:08;;;;;;;1999.90;999.90;;;19.90;99.90;;;;;;5010608;28;20423;-74
2023/08/28 10:07:37;;;;;;;1999.90;999.90;;;19.90;99.90;;;;;;5016010;28;21267;-74
2023/08/28 10:10:05;;;;;;;1999.90;999.90;;;19.70;99.90;;;;;;5010004;28;20924;-74
2023/08/28 10:12:33;;;;;;;1999.90;999.90;;;19.40;99.90;;;;;;5009677;28;20418;-74
2023/08/28 10:15:03;;;;;;;1999.90;999.90;;;19.50;99.90;;;;;;5014033;28;20423;-74
2023/08/28 10:17:32;;;;;;;1999.90;999.90;;;19.60;99.90;;;;;;5026654;28;20461;-74
2023/08/28 10:20:00;;;;;;;1999.90;999.90;;;19.50;99.90;;;;;;5018815;28;20477;-74
2023/08/28 10:22:27;;;;;;;1999.90;999.90;;;19.50;99.90;;;;;;5012990;28;20771;-74
2023/08/28 10:24:56;;;;;;;1999.90;999.90;;;19.50;99.90;;;;;;5010632;28;20404;-74
2023/08/28 10:27:22;;;;;;;1999.90;999.90;;;19.50;99.90;;;;;;5009915;28;20431;-74
2023/08/28 10:29:48;;;;;;;1999.90;999.90;;;19.50;99.90;;;;;;5010392;28;20779;-74
2023/08/28 10:32:14;;;;;;;1999.90;999.90;;;19.50;99.90;;;;;;5009989;28;20471;-74
2023/08/28 10:34:40;;;;;;;1999.90;999.90;;;19.60;99.90;;;;;;5009855;28;20236;-75
2023/08/28 10:37:09;;;;;;;1999.90;999.90;;;19.60;99.90;;;;;;5009560;28;20203;-74
2023/08/28 10:39:44;;;;;;;1999.90;999.90;;;19.50;99.90;;;;;;5010304;28;20422;-74
2023/08/28 10:42:15;;;;;;;1999.90;999.90;;;19.50;99.90;;;;;;5010137;28;20436;-74
2023/08/28 10:44:42;;;;;;;1999.90;999.90;;;19.80;99.90;;;;;;5010222;28;20462;-74
2023/08/28 10:47:08;;;;;;;1999.90;999.90;;;20.00;99.90;;;;;;5008992;28;20438;-74
2023/08/28 10:49:34;;;;;;;1999.90;999.90;;;20.10;99.90;;;;;;5008587;28;20432;-74
2023/08/28 10:52:03;;;;;;;1999.90;999.90;;;20.10;99.90;;;;;;5008770;28;20176;-74
2023/08/28 10:54:39;;;;;;;1999.90;999.90;;;20.00;99.90;;;;;;5008245;28;20561;-74
2023/08/28 10:57:11;;;;;;;1999.90;999.90;;;20.10;99.90;;;;;;5008964;28;20430;-75
2023/08/28 10:59:44;;;;;;;1999.90;999.90;;;20.40;99.90;;;;;;5008608;28;20427;-76
2023/08/28 11:02:10;;;;;;;1999.90;999.90;;;20.60;99.90;;;;;;5008893;28;20521;-75
2023/08/28 11:04:37;;;;;;;1999.90;999.90;;;20.50;99.90;;;;;;5009273;28;20817;-75
2023/08/28 11:07:04;;;;;;;1999.90;999.90;;;20.30;99.90;;;;;;5008707;28;20482;-75
2023/08/28 11:09:30;;;;;;;1999.90;999.90;;;20.50;99.90;;;;;;5007609;28;20466;-74
2023/08/28 11:11:59;;;;;;;1999.90;999.90;;;20.80;99.90;;;;;;5009276;28;20440;-74
2023/08/28 11:14:26;;;;;;;1999.90;999.90;;;21.00;99.90;;;;;;5009422;28;20467;-72
2023/08/28 11:17:12;;;;;;;1999.90;999.90;;;20.60;99.90;;;;;;5008499;28;20488;-72
2023/08/28 11:20:02;;;;;;;1999.90;999.90;;;20.40;99.90;;;;;;5008932;28;20426;-73
2023/08/28 11:22:31;;;;;;;1999.90;999.90;;;20.70;99.90;;;;;;5003771;28;20431;-74
2023/08/28 11:24:57;;;;;;;1999.90;999.90;;;20.90;99.90;;;;;;5008779;28;20434;-73
2023/08/28 11:27:49;;;;;;;1999.90;999.90;;;21.20;99.90;;;;;;5007935;28;20452;-74
2023/08/28 11:30:19;;;;;;;1999.90;999.90;;;21.50;99.90;;;;;;5000587;28;20994;-75
2023/08/28 11:32:49;;;;;;;1999.90;999.90;;;21.70;99.90;;;;;;5008694;28;20505;-74
2023/08/28 11:35:17;;;;;;;1999.90;999.90;;;21.60;99.90;;;;;;5002476;28;20426;-73
2023/08/28 11:37:47;;;;;;;1999.90;999.90;;;21.50;99.90;;;;;;5007902;28;20436;-74
2023/08/28 11:40:18;;;;;;;1999.90;999.90;;;21.40;99.90;;;;;;5008598;28;20480;-75
2023/08/28 11:42:49;;;;;;;1999.90;999.90;;;21.10;99.90;;;;;;5004549;28;20417;-74
2023/08/28 11:45:21;;;;;;;1999.90;999.90;;;20.60;99.90;;;;;;5008384;28;20424;-74
2023/08/28 11:47:46;;;;;;;1999.90;999.90;;;20.60;99.90;;;;;;5009072;28;20437;-74
2023/08/28 11:50:12;;;;;;;1999.90;999.90;;;20.80;99.90;;;;;;5007870;28;20941;-75
2023/08/28 11:52:38;;;;;;;1999.90;999.90;;;20.90;99.90;;;;;;5008518;28;20171;-74
2023/08/28 11:55:06;;;;;;;1999.90;999.90;;;20.80;99.90;;;;;;5008492;28;20633;-74
2023/08/28 11:57:33;;;;;;;1999.90;999.90;;;20.90;99.90;;;;;;5008065;28;20186;-74